createdAt,value
2019-03-24T00:00:08.034Z,11.11
2019-03-24T00:01:08.023Z,11.06
2019-03-24T00:02:08.007Z,11.05
2019-03-24T00:03:08.002Z,11.08
2019-03-24T00:04:08.009Z,11.05
2019-03-24T00:05:07.976Z,11.02
2019-03-24T00:06:07.967Z,11.05
2019-03-24T00:07:07.954Z,11.03
2019-03-24T00:08:07.943Z,11.02
2019-03-24T00:09:07.933Z,11.09
2019-03-24T00:10:07.933Z,11.09
2019-03-24T00:11:07.916Z,11.01
2019-03-24T00:12:07.903Z,10.98
2019-03-24T00:13:07.895Z,11.02
2019-03-24T00:14:07.880Z,11.03
2019-03-24T00:15:07.919Z,11.03
2019-03-24T00:16:07.864Z,11.03
2019-03-24T00:17:07.852Z,11.06
2019-03-24T00:18:07.843Z,10.95
2019-03-24T00:19:07.830Z,10.94
2019-03-24T00:20:10.134Z,10.91
2019-03-24T00:21:07.814Z,10.94
2019-03-24T00:22:07.805Z,10.99
2019-03-24T00:23:07.786Z,10.93
2019-03-24T00:24:07.776Z,10.90
2019-03-24T00:25:07.772Z,10.83
2019-03-24T00:26:07.762Z,10.90
2019-03-24T00:27:07.744Z,10.91
2019-03-24T00:28:07.736Z,10.84
2019-03-24T00:29:07.722Z,10.86
2019-03-24T00:30:07.715Z,10.81
2019-03-24T00:31:07.710Z,10.72
2019-03-24T00:32:07.689Z,10.72
2019-03-24T00:33:07.682Z,10.75
2019-03-24T00:34:07.667Z,10.70
2019-03-24T00:35:07.662Z,10.62
2019-03-24T00:36:07.687Z,10.70
2019-03-24T00:37:07.637Z,10.66
2019-03-24T00:38:07.632Z,10.54
2019-03-24T00:39:07.621Z,10.63
2019-03-24T00:40:07.612Z,10.69
2019-03-24T00:41:07.598Z,10.65
2019-03-24T00:42:07.596Z,10.63
2019-03-24T00:43:07.577Z,10.58
2019-03-24T00:44:07.564Z,10.63
2019-03-24T00:45:07.550Z,10.58
2019-03-24T00:46:07.540Z,10.46
2019-03-24T00:47:07.544Z,10.51
2019-03-24T00:48:07.523Z,10.43
2019-03-24T00:49:07.513Z,10.47
2019-03-24T00:50:07.503Z,10.44
2019-03-24T00:51:07.495Z,10.46
2019-03-24T00:52:07.505Z,10.38
2019-03-24T00:53:07.476Z,10.42
2019-03-24T00:54:07.458Z,10.42
2019-03-24T00:55:07.443Z,10.36
2019-03-24T00:56:07.435Z,10.42
2019-03-24T00:57:07.427Z,10.43
2019-03-24T00:58:07.441Z,10.36
2019-03-24T00:59:07.406Z,10.38
2019-03-24T01:00:07.396Z,10.43
2019-03-24T01:01:07.380Z,10.36
2019-03-24T01:02:07.371Z,10.34
2019-03-24T01:03:07.364Z,10.32
2019-03-24T01:04:07.356Z,10.31
2019-03-24T01:05:14.405Z,10.25
2019-03-24T01:06:07.326Z,10.18
2019-03-24T01:07:07.323Z,10.18
2019-03-24T01:08:07.306Z,10.17
2019-03-24T01:09:07.303Z,10.26
2019-03-24T01:10:07.294Z,10.11
2019-03-24T01:11:07.272Z,10.07
2019-03-24T01:12:07.262Z,10.13
2019-03-24T01:13:07.253Z,10.13
2019-03-24T01:14:07.261Z,9.99
2019-03-24T01:15:07.238Z,9.99
2019-03-24T01:16:07.220Z,10.09
2019-03-24T01:17:07.209Z,10.04
2019-03-24T01:18:07.199Z,10.02
2019-03-24T01:19:07.194Z,10.04
2019-03-24T01:20:07.200Z,10.14
2019-03-24T01:21:07.175Z,10.02
2019-03-24T01:22:07.155Z,10.01
2019-03-24T01:23:07.145Z,9.99
2019-03-24T01:24:07.137Z,9.99
2019-03-24T01:25:07.138Z,9.99
2019-03-24T01:26:07.111Z,9.96
2019-03-24T01:27:07.113Z,9.93
2019-03-24T01:28:07.100Z,9.85
2019-03-24T01:29:07.083Z,9.88
2019-03-24T01:30:07.197Z,9.88
2019-03-24T01:31:07.070Z,9.88
2019-03-24T01:32:07.046Z,9.92
2019-03-24T01:33:07.042Z,9.80
2019-03-24T01:34:07.032Z,9.89
2019-03-24T01:35:07.021Z,9.88
2019-03-24T01:36:07.014Z,9.92
2019-03-24T01:37:07.001Z,9.91
2019-03-24T01:38:06.984Z,9.92
2019-03-24T01:39:06.977Z,9.91
2019-03-24T01:40:06.965Z,9.91
2019-03-24T01:41:08.072Z,9.85
2019-03-24T01:42:06.947Z,9.86
2019-03-24T01:43:06.935Z,9.92
2019-03-24T01:44:06.923Z,9.88
2019-03-24T01:45:06.915Z,9.92
2019-03-24T01:46:06.937Z,9.86
2019-03-24T01:47:06.892Z,9.81
2019-03-24T01:48:06.881Z,9.78
2019-03-24T01:49:06.870Z,9.71
2019-03-24T01:50:06.863Z,9.74
2019-03-24T01:51:06.846Z,9.73
2019-03-24T01:52:13.913Z,9.83
2019-03-24T01:53:14.772Z,9.73
2019-03-24T01:54:15.789Z,9.70
2019-03-24T01:55:14.819Z,9.71
2019-03-24T01:56:06.789Z,9.68
2019-03-24T01:57:14.863Z,9.58
2019-03-24T01:58:06.773Z,9.53
2019-03-24T01:59:14.376Z,9.58
2019-03-24T02:00:15.399Z,9.53
2019-03-24T02:01:06.742Z,9.56
2019-03-24T02:02:06.731Z,9.53
2019-03-24T02:03:06.729Z,9.58
2019-03-24T02:04:06.711Z,9.55
2019-03-24T02:05:06.695Z,9.58
2019-03-24T02:06:06.689Z,9.49
2019-03-24T02:07:06.683Z,9.56
2019-03-24T02:08:06.675Z,9.49
2019-03-24T02:09:06.656Z,9.53
2019-03-24T02:10:06.669Z,9.49
2019-03-24T02:11:06.636Z,9.45
2019-03-24T02:13:23.697Z,9.41
2019-03-24T02:14:31.396Z,9.27
2019-03-24T02:15:32.415Z,9.40
2019-03-24T02:16:31.445Z,9.40
2019-03-24T02:17:31.467Z,9.37
2019-03-24T02:18:30.992Z,9.40
2019-03-24T02:19:31.503Z,9.35
2019-03-24T02:20:23.601Z,9.30
2019-03-24T02:21:23.586Z,9.41
2019-03-24T02:22:23.603Z,9.34
2019-03-24T02:23:23.574Z,9.35
2019-03-24T02:24:23.553Z,9.23
2019-03-24T02:25:23.545Z,9.34
2019-03-24T02:26:23.533Z,9.31
2019-03-24T02:27:23.526Z,9.27
2019-03-24T02:28:23.534Z,9.30
2019-03-24T02:29:23.499Z,9.22
2019-03-24T02:30:23.516Z,9.15
2019-03-24T02:31:23.486Z,9.16
2019-03-24T02:32:23.472Z,9.08
2019-03-24T02:33:23.512Z,9.00
2019-03-24T02:34:23.447Z,9.04
2019-03-24T02:35:23.443Z,9.04
2019-03-24T02:36:23.449Z,8.98
2019-03-24T02:37:23.422Z,8.98
2019-03-24T02:38:23.413Z,9.01
2019-03-24T02:39:23.443Z,9.00
2019-03-24T02:40:23.389Z,9.01
2019-03-24T02:41:23.377Z,9.00
2019-03-24T02:42:23.368Z,8.88
2019-03-24T02:43:23.357Z,8.85
2019-03-24T02:44:23.342Z,8.85
2019-03-24T02:45:23.343Z,8.86
2019-03-24T02:46:24.918Z,8.82
2019-03-24T02:47:23.312Z,8.78
2019-03-24T02:48:23.307Z,8.80
2019-03-24T02:49:23.293Z,8.76
2019-03-24T02:50:23.284Z,8.70
2019-03-24T02:51:23.291Z,8.75
2019-03-24T02:52:23.257Z,8.75
2019-03-24T02:53:23.263Z,8.65
2019-03-24T02:54:23.240Z,8.60
2019-03-24T02:55:23.229Z,8.58
2019-03-24T02:56:23.217Z,8.64
2019-03-24T02:57:23.223Z,8.67
2019-03-24T02:58:23.195Z,8.73
2019-03-24T02:59:23.222Z,8.67
2019-03-24T03:00:23.171Z,8.65
2019-03-24T03:01:23.165Z,8.63
2019-03-24T03:02:23.160Z,8.58
2019-03-24T03:03:23.159Z,8.57
2019-03-24T03:04:23.134Z,8.54
2019-03-24T03:05:23.117Z,8.39
2019-03-24T03:06:23.108Z,8.45
2019-03-24T03:07:23.098Z,8.42
2019-03-24T03:08:23.093Z,8.50
2019-03-24T03:09:23.106Z,8.43
2019-03-24T03:10:23.064Z,8.46
2019-03-24T03:11:23.070Z,8.46
2019-03-24T03:12:23.047Z,8.46
2019-03-24T03:13:23.037Z,8.43
2019-03-24T03:14:23.030Z,8.36
2019-03-24T03:15:23.009Z,8.31
2019-03-24T03:16:37.553Z,8.34
2019-03-24T03:17:23.993Z,8.29
2019-03-24T03:18:22.979Z,8.28
2019-03-24T03:19:23.000Z,8.22
2019-03-24T03:20:22.969Z,8.29
2019-03-24T03:21:22.945Z,8.25
2019-03-24T03:22:22.944Z,8.28
2019-03-24T03:23:22.925Z,8.20
2019-03-24T03:24:22.912Z,8.21
2019-03-24T03:25:22.938Z,8.22
2019-03-24T03:26:22.891Z,8.21
2019-03-24T03:27:22.884Z,8.24
2019-03-24T03:28:22.883Z,8.21
2019-03-24T03:29:22.862Z,8.22
2019-03-24T03:30:22.858Z,8.24
2019-03-24T03:31:22.850Z,8.17
2019-03-24T03:32:22.836Z,8.18
2019-03-24T03:33:22.893Z,8.18
2019-03-24T03:34:22.814Z,8.13
2019-03-24T03:35:22.814Z,8.22
2019-03-24T03:36:22.819Z,8.18
2019-03-24T03:37:22.791Z,8.14
2019-03-24T03:38:22.763Z,8.14
2019-03-24T03:39:22.779Z,8.14
2019-03-24T03:40:22.741Z,8.20
2019-03-24T03:41:22.743Z,8.04
2019-03-24T03:42:22.764Z,8.06
2019-03-24T03:43:22.722Z,8.12
2019-03-24T03:44:22.701Z,8.06
2019-03-24T03:45:22.687Z,8.07
2019-03-24T03:46:22.691Z,8.00
2019-03-24T03:47:22.670Z,8.02
2019-03-24T03:48:22.666Z,7.96
2019-03-24T03:49:22.648Z,7.99
2019-03-24T03:50:22.635Z,7.99
2019-03-24T03:51:22.634Z,7.99
2019-03-24T03:52:22.630Z,7.92
2019-03-24T03:53:22.605Z,8.03
2019-03-24T03:54:22.600Z,8.02
2019-03-24T03:55:22.580Z,8.03
2019-03-24T03:56:22.583Z,8.02
2019-03-24T03:57:22.561Z,7.92
2019-03-24T03:58:22.550Z,7.89
2019-03-24T03:59:22.548Z,7.88
2019-03-24T04:00:22.541Z,7.86
2019-03-24T04:01:22.519Z,7.94
2019-03-24T04:02:22.519Z,7.89
2019-03-24T04:03:22.513Z,7.76
2019-03-24T04:04:22.504Z,7.84
2019-03-24T04:05:22.480Z,7.81
2019-03-24T04:06:22.468Z,7.84
2019-03-24T04:07:22.454Z,7.73
2019-03-24T04:08:22.443Z,7.74
2019-03-24T04:09:22.439Z,7.79
2019-03-24T04:10:22.431Z,7.76
2019-03-24T04:11:22.413Z,7.74
2019-03-24T04:12:22.409Z,7.70
2019-03-24T04:13:22.397Z,7.71
2019-03-24T04:14:22.393Z,7.70
2019-03-24T04:15:22.373Z,7.70
2019-03-24T04:16:22.374Z,7.63
2019-03-24T04:17:22.358Z,7.62
2019-03-24T04:18:22.355Z,7.60
2019-03-24T04:19:22.333Z,7.60
2019-03-24T04:20:22.321Z,7.71
2019-03-24T04:21:22.326Z,7.57
2019-03-24T04:22:22.303Z,7.57
2019-03-24T04:23:22.293Z,7.55
2019-03-24T04:24:22.304Z,7.66
2019-03-24T04:25:22.272Z,7.67
2019-03-24T04:26:22.260Z,7.52
2019-03-24T04:27:22.266Z,7.58
2019-03-24T04:28:22.235Z,7.55
2019-03-24T04:29:22.232Z,7.47
2019-03-24T04:30:22.244Z,7.42
2019-03-24T04:31:22.202Z,7.48
2019-03-24T04:32:22.202Z,7.48
2019-03-24T04:33:22.181Z,7.39
2019-03-24T04:34:22.170Z,7.45
2019-03-24T04:35:22.160Z,7.30
2019-03-24T04:36:22.167Z,7.37
2019-03-24T04:37:22.150Z,7.30
2019-03-24T04:38:22.133Z,7.30
2019-03-24T04:39:22.118Z,7.26
2019-03-24T04:40:22.112Z,7.27
2019-03-24T04:41:22.142Z,7.26
2019-03-24T04:42:22.090Z,7.19
2019-03-24T04:43:22.080Z,7.18
2019-03-24T04:44:22.071Z,7.15
2019-03-24T04:45:22.054Z,7.26
2019-03-24T04:46:22.049Z,7.23
2019-03-24T04:47:22.049Z,7.19
2019-03-24T04:48:22.025Z,7.24
2019-03-24T04:49:22.012Z,7.30
2019-03-24T04:50:22.000Z,7.29
2019-03-24T04:51:21.998Z,7.30
2019-03-24T04:52:21.989Z,7.37
2019-03-24T04:53:21.983Z,7.34
2019-03-24T04:54:21.958Z,7.37
2019-03-24T04:55:21.960Z,7.34
2019-03-24T04:56:21.938Z,7.42
2019-03-24T04:57:21.927Z,7.44
2019-03-24T04:58:21.915Z,7.50
2019-03-24T04:59:21.914Z,7.47
2019-03-24T05:00:21.896Z,7.41
2019-03-24T05:01:21.924Z,7.48
2019-03-24T05:02:21.875Z,7.50
2019-03-24T05:03:21.873Z,7.54
2019-03-24T05:04:21.860Z,7.50
2019-03-24T05:05:21.851Z,7.51
2019-03-24T05:06:21.831Z,7.50
2019-03-24T05:07:21.862Z,7.51
2019-03-24T05:08:21.816Z,7.48
2019-03-24T05:09:21.810Z,7.50
2019-03-24T05:10:21.808Z,7.62
2019-03-24T05:11:21.780Z,7.62
2019-03-24T05:12:21.769Z,7.63
2019-03-24T05:13:21.775Z,7.62
2019-03-24T05:14:21.753Z,7.60
2019-03-24T05:15:21.745Z,7.48
2019-03-24T05:16:21.738Z,7.60
2019-03-24T05:17:26.944Z,7.55
2019-03-24T05:18:22.712Z,7.52
2019-03-24T05:19:21.701Z,7.66
2019-03-24T05:20:21.688Z,7.71
2019-03-24T05:21:21.711Z,7.57
2019-03-24T05:22:21.675Z,7.73
2019-03-24T05:23:21.667Z,7.74
2019-03-24T05:24:21.643Z,7.63
2019-03-24T05:25:23.680Z,7.69
2019-03-24T05:26:21.628Z,7.74
2019-03-24T05:27:21.633Z,7.69
2019-03-24T05:28:21.615Z,7.73
2019-03-24T05:29:21.592Z,7.63
2019-03-24T05:30:21.583Z,7.60
2019-03-24T05:31:21.576Z,7.51
2019-03-24T05:32:21.565Z,7.58
2019-03-24T05:33:21.569Z,7.60
2019-03-24T05:34:21.543Z,7.50
2019-03-24T05:35:21.527Z,7.51
2019-03-24T05:36:21.519Z,7.58
2019-03-24T05:37:21.511Z,7.48
2019-03-24T05:38:21.505Z,7.66
2019-03-24T05:39:21.494Z,7.71
2019-03-24T05:40:21.478Z,7.66
2019-03-24T05:41:21.465Z,7.71
2019-03-24T05:42:21.458Z,7.67
2019-03-24T05:43:21.458Z,7.62
2019-03-24T05:44:21.441Z,7.62
2019-03-24T05:45:21.430Z,7.57
2019-03-24T05:46:21.415Z,7.60
2019-03-24T05:47:21.405Z,7.62
2019-03-24T05:48:21.395Z,7.62
2019-03-24T05:49:21.422Z,7.63
2019-03-24T05:50:21.381Z,7.73
2019-03-24T05:51:21.361Z,7.62
2019-03-24T05:52:21.354Z,7.74
2019-03-24T05:53:21.336Z,7.62
2019-03-24T05:54:21.331Z,7.73
2019-03-24T05:55:21.355Z,7.77
2019-03-24T05:56:21.305Z,7.79
2019-03-24T05:57:21.305Z,7.69
2019-03-24T05:58:21.282Z,7.71
2019-03-24T05:59:21.277Z,7.73
2019-03-24T06:00:21.260Z,7.81
2019-03-24T06:01:21.264Z,7.86
2019-03-24T06:02:21.243Z,7.86
2019-03-24T06:03:21.235Z,7.89
2019-03-24T06:04:21.223Z,7.89
2019-03-24T06:05:21.242Z,7.85
2019-03-24T06:06:21.196Z,7.89
2019-03-24T06:07:21.194Z,7.84
2019-03-24T06:08:21.185Z,7.79
2019-03-24T06:09:21.168Z,7.84
2019-03-24T06:10:21.158Z,7.86
2019-03-24T06:11:21.158Z,7.85
2019-03-24T06:12:21.140Z,7.91
2019-03-24T06:13:21.126Z,7.95
2019-03-24T06:14:21.112Z,7.94
2019-03-24T06:15:21.104Z,7.92
2019-03-24T06:16:21.098Z,7.85
2019-03-24T06:17:21.084Z,8.00
2019-03-24T06:18:21.073Z,7.99
2019-03-24T06:19:21.071Z,7.96
2019-03-24T06:20:21.051Z,7.94
2019-03-24T06:21:21.044Z,7.94
2019-03-24T06:22:21.030Z,7.89
2019-03-24T06:23:21.014Z,8.02
2019-03-24T06:24:21.012Z,7.96
2019-03-24T06:25:21.009Z,8.03
2019-03-24T06:26:21.017Z,8.02
2019-03-24T06:27:20.990Z,8.02
2019-03-24T06:28:20.962Z,8.13
2019-03-24T06:29:20.956Z,8.17
2019-03-24T06:30:20.952Z,8.22
2019-03-24T06:31:20.929Z,8.29
2019-03-24T06:32:20.963Z,8.40
2019-03-24T06:33:20.908Z,8.45
2019-03-24T06:34:20.903Z,8.55
2019-03-24T06:35:20.894Z,8.58
2019-03-24T06:36:20.876Z,8.58
2019-03-24T06:37:20.868Z,8.68
2019-03-24T06:38:20.865Z,8.70
2019-03-24T06:39:20.845Z,8.85
2019-03-24T06:40:20.838Z,8.89
2019-03-24T06:41:20.822Z,8.97
2019-03-24T06:42:20.818Z,9.12
2019-03-24T06:43:20.839Z,9.16
2019-03-24T06:44:20.797Z,9.35
2019-03-24T06:45:28.326Z,9.38
2019-03-24T06:46:21.777Z,9.49
2019-03-24T06:47:20.765Z,9.60
2019-03-24T06:48:20.753Z,9.53
2019-03-24T06:49:20.747Z,9.60
2019-03-24T06:50:20.734Z,9.68
2019-03-24T06:51:20.721Z,9.70
2019-03-24T06:52:20.713Z,9.86
2019-03-24T06:53:20.704Z,9.99
2019-03-24T06:54:20.695Z,10.13
2019-03-24T06:55:20.679Z,10.34
2019-03-24T06:56:20.665Z,10.51
2019-03-24T06:57:20.652Z,10.55
2019-03-24T06:58:20.641Z,10.69
2019-03-24T06:59:20.643Z,10.83
2019-03-24T07:00:20.650Z,10.88
2019-03-24T07:01:20.660Z,10.86
2019-03-24T07:02:20.604Z,10.93
2019-03-24T07:03:20.592Z,11.03
2019-03-24T07:04:20.578Z,11.03
2019-03-24T07:05:28.557Z,11.20
2019-03-24T07:06:20.557Z,11.08
2019-03-24T07:07:20.560Z,11.12
2019-03-24T07:08:20.538Z,11.27
2019-03-24T07:09:20.527Z,11.41
2019-03-24T07:10:20.513Z,11.42
2019-03-24T07:11:20.510Z,11.54
2019-03-24T07:12:20.504Z,11.67
2019-03-24T07:13:20.490Z,11.75
2019-03-24T07:14:20.473Z,11.88
2019-03-24T07:15:20.494Z,11.97
2019-03-24T07:16:20.454Z,12.16
2019-03-24T07:17:20.438Z,12.26
2019-03-24T07:18:20.433Z,12.38
2019-03-24T07:19:20.420Z,12.40
2019-03-24T07:20:20.407Z,12.46
2019-03-24T07:21:20.408Z,12.63
2019-03-24T07:22:20.387Z,12.81
2019-03-24T07:23:20.377Z,12.80
2019-03-24T07:24:20.361Z,12.85
2019-03-24T07:25:20.350Z,13.06
2019-03-24T07:26:20.354Z,13.01
2019-03-24T07:27:20.333Z,12.88
2019-03-24T07:28:20.321Z,12.94
2019-03-24T07:29:20.311Z,12.87
2019-03-24T07:30:20.306Z,12.85
2019-03-24T07:31:20.300Z,12.67
2019-03-24T07:32:20.281Z,12.56
2019-03-24T07:33:20.314Z,12.31
2019-03-24T07:34:20.261Z,12.25
2019-03-24T07:35:20.247Z,12.21
2019-03-24T07:36:20.238Z,12.11
2019-03-24T07:37:20.222Z,12.01
2019-03-24T07:38:20.213Z,12.00
2019-03-24T07:39:20.217Z,12.03
2019-03-24T07:40:20.193Z,12.16
2019-03-24T07:41:20.181Z,12.12
2019-03-24T07:42:20.173Z,11.98
2019-03-24T07:43:20.156Z,12.07
2019-03-24T07:44:20.203Z,11.97
2019-03-24T07:45:20.147Z,12.18
2019-03-24T07:46:20.129Z,12.11
2019-03-24T07:47:20.117Z,12.03
2019-03-24T07:48:20.107Z,12.19
2019-03-24T07:49:20.103Z,12.18
2019-03-24T07:50:20.092Z,12.52
2019-03-24T07:51:20.074Z,12.55
2019-03-24T07:52:20.092Z,12.71
2019-03-24T07:53:20.055Z,13.22
2019-03-24T07:54:20.044Z,13.51
2019-03-24T07:55:20.033Z,13.57
2019-03-24T07:56:20.021Z,13.76
2019-03-24T07:57:20.013Z,13.96
2019-03-24T07:58:20.010Z,13.68
2019-03-24T07:59:19.991Z,13.61
2019-03-24T08:00:19.977Z,13.38
2019-03-24T08:01:19.966Z,13.51
2019-03-24T08:02:19.973Z,13.38
2019-03-24T08:03:19.960Z,13.47
2019-03-24T08:04:19.940Z,13.48
2019-03-24T08:05:19.919Z,13.36
2019-03-24T08:06:19.958Z,13.27
2019-03-24T08:07:19.899Z,13.21
2019-03-24T08:08:19.888Z,13.29
2019-03-24T08:09:19.883Z,13.66
2019-03-24T08:10:19.883Z,14.02
2019-03-24T08:11:19.866Z,14.39
2019-03-24T08:12:19.856Z,14.91
2019-03-24T08:13:19.839Z,15.04
2019-03-24T08:14:19.823Z,15.46
2019-03-24T08:15:19.818Z,15.58
2019-03-24T08:16:19.804Z,15.73
2019-03-24T08:17:19.807Z,16.17
2019-03-24T08:18:29.460Z,16.34
2019-03-24T08:19:20.789Z,16.26
2019-03-24T08:20:19.758Z,15.81
2019-03-24T08:21:19.752Z,15.37
2019-03-24T08:22:19.756Z,14.94
2019-03-24T08:23:19.726Z,14.72
2019-03-24T08:24:19.721Z,15.25
2019-03-24T08:25:19.706Z,15.20
2019-03-24T08:26:19.699Z,15.31
2019-03-24T08:27:19.683Z,15.30
2019-03-24T08:28:19.690Z,15.25
2019-03-24T08:29:19.702Z,15.12
2019-03-24T08:30:19.652Z,15.15
2019-03-24T08:31:19.649Z,15.11
2019-03-24T08:32:19.635Z,15.11
2019-03-24T08:33:19.625Z,15.44
2019-03-24T08:34:19.612Z,15.59
2019-03-24T08:35:19.609Z,15.56
2019-03-24T08:36:19.589Z,15.46
2019-03-24T08:37:19.584Z,15.38
2019-03-24T08:38:19.575Z,15.41
2019-03-24T08:39:19.563Z,15.40
2019-03-24T08:40:19.566Z,15.43
2019-03-24T08:41:19.534Z,15.44
2019-03-24T08:42:19.525Z,15.37
2019-03-24T08:43:19.545Z,15.44
2019-03-24T08:44:19.502Z,15.48
2019-03-24T08:45:19.528Z,15.46
2019-03-24T08:46:19.487Z,15.53
2019-03-24T08:47:19.477Z,15.71
2019-03-24T08:48:19.459Z,15.68
2019-03-24T08:49:19.457Z,15.55
2019-03-24T08:50:19.444Z,15.60
2019-03-24T08:51:19.444Z,15.66
2019-03-24T08:52:19.420Z,15.46
2019-03-24T08:53:19.411Z,15.35
2019-03-24T08:54:19.400Z,15.25
2019-03-24T08:55:19.385Z,15.12
2019-03-24T08:56:19.389Z,15.12
2019-03-24T08:57:19.371Z,15.19
2019-03-24T08:58:19.360Z,15.05
2019-03-24T08:59:19.342Z,15.03
2019-03-24T09:00:29.877Z,14.91
2019-03-24T09:01:20.330Z,14.80
2019-03-24T09:02:19.311Z,14.93
2019-03-24T09:03:19.305Z,14.86
2019-03-24T09:04:19.303Z,15.13
2019-03-24T09:05:19.283Z,15.25
2019-03-24T09:06:19.276Z,15.16
2019-03-24T09:07:19.264Z,15.11
2019-03-24T09:08:19.250Z,15.58
2019-03-24T09:09:19.246Z,16.10
2019-03-24T09:10:19.229Z,16.52
2019-03-24T09:11:19.215Z,16.95
2019-03-24T09:12:19.212Z,17.43
2019-03-24T09:13:19.199Z,17.95
2019-03-24T09:14:19.182Z,18.42
2019-03-24T09:15:19.179Z,18.42
2019-03-24T09:16:19.169Z,18.78
2019-03-24T09:17:19.188Z,18.39
2019-03-24T09:18:19.151Z,18.71
2019-03-24T09:19:19.134Z,18.66
2019-03-24T09:20:19.124Z,18.44
2019-03-24T09:21:19.649Z,18.28
2019-03-24T09:22:19.112Z,18.23
2019-03-24T09:23:19.093Z,17.87
2019-03-24T09:24:19.073Z,17.80
2019-03-24T09:25:19.107Z,17.63
2019-03-24T09:26:19.075Z,17.15
2019-03-24T09:27:19.050Z,17.38
2019-03-24T09:28:19.042Z,17.71
2019-03-24T09:29:19.031Z,17.80
2019-03-24T09:30:19.018Z,17.63
2019-03-24T09:31:18.999Z,17.36
2019-03-24T09:32:18.998Z,17.36
2019-03-24T09:33:18.987Z,17.53
2019-03-24T09:34:18.992Z,17.81
2019-03-24T09:35:18.961Z,17.92
2019-03-24T09:36:18.952Z,17.66
2019-03-24T09:37:18.936Z,17.45
2019-03-24T09:38:18.933Z,17.30
2019-03-24T09:39:18.923Z,17.25
2019-03-24T09:40:18.918Z,17.58
2019-03-24T09:41:18.897Z,17.46
2019-03-24T09:42:18.885Z,17.47
2019-03-24T09:43:18.883Z,17.53
2019-03-24T09:44:18.864Z,17.05
2019-03-24T09:45:18.868Z,17.18
2019-03-24T09:46:18.855Z,17.38
2019-03-24T09:47:18.836Z,17.35
2019-03-24T09:48:18.821Z,17.71
2019-03-24T09:49:18.814Z,17.74
2019-03-24T09:50:18.838Z,17.95
2019-03-24T09:51:21.120Z,18.41
2019-03-24T09:52:18.785Z,18.83
2019-03-24T09:53:18.773Z,19.06
2019-03-24T09:54:18.758Z,19.35
2019-03-24T09:55:18.750Z,19.45
2019-03-24T09:56:18.751Z,19.70
2019-03-24T09:57:18.726Z,20.10
2019-03-24T09:58:18.718Z,20.41
2019-03-24T09:59:18.761Z,20.56
2019-03-24T10:00:18.729Z,20.68
2019-03-24T10:01:18.710Z,20.68
2019-03-24T10:02:18.679Z,20.90
2019-03-24T10:03:18.662Z,21.15
2019-03-24T10:04:18.656Z,20.90
2019-03-24T10:05:18.643Z,20.83
2019-03-24T10:06:18.636Z,20.87
2019-03-24T10:07:18.638Z,21.05
2019-03-24T10:08:18.613Z,21.05
2019-03-24T10:09:18.802Z,21.15
2019-03-24T10:10:18.593Z,21.30
2019-03-24T10:11:18.593Z,21.49
2019-03-24T10:12:18.583Z,21.77
2019-03-24T10:13:18.556Z,22.01
2019-03-24T10:14:18.546Z,21.58
2019-03-24T10:15:18.541Z,21.01
2019-03-24T10:16:18.530Z,20.54
2019-03-24T10:17:18.533Z,20.31
2019-03-24T10:18:18.503Z,19.94
2019-03-24T10:19:18.493Z,19.76
2019-03-24T10:20:18.489Z,19.80
2019-03-24T10:21:18.497Z,19.76
2019-03-24T10:22:18.483Z,19.67
2019-03-24T10:23:18.456Z,19.79
2019-03-24T10:24:18.445Z,20.19
2019-03-24T10:25:18.434Z,20.27
2019-03-24T10:26:18.427Z,20.31
2019-03-24T10:27:18.413Z,20.15
2019-03-24T10:28:18.440Z,19.89
2019-03-24T10:29:18.391Z,19.79
2019-03-24T10:30:18.376Z,19.78
2019-03-24T10:31:18.370Z,19.72
2019-03-24T10:32:18.372Z,19.95
2019-03-24T10:33:18.354Z,20.08
2019-03-24T10:34:18.349Z,20.72
2019-03-24T10:35:18.323Z,20.63
2019-03-24T10:36:18.313Z,20.57
2019-03-24T10:37:18.355Z,20.54
2019-03-24T10:38:18.294Z,20.56
2019-03-24T10:39:18.283Z,20.30
2019-03-24T10:40:28.123Z,20.13
2019-03-24T10:41:19.263Z,20.07
2019-03-24T10:42:18.255Z,20.19
2019-03-24T10:43:18.259Z,20.16
2019-03-24T10:44:18.228Z,20.35
2019-03-24T10:45:18.222Z,20.58
2019-03-24T10:46:18.212Z,20.35
2019-03-24T10:47:18.196Z,20.07
2019-03-24T10:48:18.236Z,20.25
2019-03-24T10:49:24.763Z,20.60
2019-03-24T10:50:19.169Z,20.90
2019-03-24T10:51:18.161Z,21.16
2019-03-24T10:52:18.149Z,21.36
2019-03-24T10:53:18.144Z,21.90
2019-03-24T10:54:18.137Z,22.29
2019-03-24T10:55:18.117Z,22.30
2019-03-24T10:56:18.103Z,22.38
2019-03-24T10:57:18.098Z,22.70
2019-03-24T10:58:18.082Z,22.78
2019-03-24T10:59:18.103Z,22.19
2019-03-24T11:00:18.060Z,22.74
2019-03-24T11:01:18.050Z,23.22
2019-03-24T11:02:18.056Z,23.62
2019-03-24T11:03:18.033Z,23.84
2019-03-24T11:04:18.020Z,23.86
2019-03-24T11:05:18.021Z,23.78
2019-03-24T11:06:17.998Z,23.93
2019-03-24T11:07:17.992Z,24.30
2019-03-24T11:08:18.074Z,24.16
2019-03-24T11:09:17.987Z,24.36
2019-03-24T11:10:17.999Z,23.84
2019-03-24T11:11:17.953Z,24.12
2019-03-24T11:12:17.939Z,23.92
2019-03-24T11:13:17.930Z,24.26
2019-03-24T11:14:17.918Z,24.45
2019-03-24T11:15:17.910Z,24.11
2019-03-24T11:16:17.906Z,23.69
2019-03-24T11:17:17.889Z,23.01
2019-03-24T11:18:17.884Z,22.61
2019-03-24T11:19:17.907Z,22.33
2019-03-24T11:20:17.856Z,22.17
2019-03-24T11:21:17.862Z,22.66
2019-03-24T11:22:17.845Z,23.07
2019-03-24T11:23:17.826Z,23.45
2019-03-24T11:24:17.814Z,23.71
2019-03-24T11:25:17.808Z,23.94
2019-03-24T11:26:17.814Z,23.90
2019-03-24T11:27:17.789Z,23.67
2019-03-24T11:28:19.267Z,23.67
2019-03-24T11:29:17.763Z,23.72
2019-03-24T11:30:17.757Z,24.00
2019-03-24T11:31:17.790Z,24.48
2019-03-24T11:32:17.737Z,24.87
2019-03-24T11:33:17.730Z,25.01
2019-03-24T11:34:17.718Z,24.53
2019-03-24T11:35:17.767Z,24.37
2019-03-24T11:36:17.700Z,23.74
2019-03-24T11:37:17.706Z,23.41
2019-03-24T11:38:17.674Z,22.88
2019-03-24T11:39:17.672Z,22.76
2019-03-24T11:40:17.657Z,22.69
2019-03-24T11:41:17.643Z,22.39
2019-03-24T11:42:17.640Z,22.23
2019-03-24T11:43:17.695Z,22.02
2019-03-24T11:44:17.614Z,21.74
2019-03-24T11:45:17.601Z,21.49
2019-03-24T11:46:17.591Z,21.26
2019-03-24T11:47:26.258Z,20.83
2019-03-24T11:48:18.582Z,20.87
2019-03-24T11:49:17.648Z,21.16
2019-03-24T11:50:17.549Z,21.16
2019-03-24T11:51:17.539Z,20.98
2019-03-24T11:52:17.537Z,20.63
2019-03-24T11:53:17.516Z,20.15
2019-03-24T11:54:17.514Z,19.85
2019-03-24T11:56:26.280Z,19.39
2019-03-24T11:57:26.265Z,19.47
2019-03-24T11:58:26.250Z,19.34
2019-03-24T11:59:26.234Z,19.46
2019-03-24T12:00:26.222Z,19.50
2019-03-24T12:01:26.218Z,19.68
2019-03-24T12:02:26.211Z,19.82
2019-03-24T12:03:26.203Z,20.01
2019-03-24T12:04:26.190Z,20.31
2019-03-24T12:05:26.177Z,20.57
2019-03-24T12:06:26.157Z,20.63
2019-03-24T12:07:26.151Z,20.53
2019-03-24T12:08:26.146Z,20.27
2019-03-24T12:09:26.127Z,20.02
2019-03-24T12:10:26.132Z,19.83
2019-03-24T12:11:26.126Z,19.64
2019-03-24T12:12:26.103Z,19.60
2019-03-24T12:13:26.386Z,19.71
2019-03-24T12:14:26.077Z,19.61
2019-03-24T12:15:26.076Z,19.53
2019-03-24T12:16:26.057Z,19.76
2019-03-24T12:17:26.042Z,19.86
2019-03-24T12:18:26.077Z,20.07
2019-03-24T12:19:26.025Z,20.02
2019-03-24T12:20:26.017Z,19.76
2019-03-24T12:21:25.998Z,19.43
2019-03-24T12:22:25.987Z,18.94
2019-03-24T12:23:25.980Z,18.91
2019-03-24T12:24:25.979Z,18.34
2019-03-24T12:25:26.007Z,18.25
2019-03-24T12:26:25.943Z,18.20
2019-03-24T12:27:25.941Z,18.31
2019-03-24T12:28:25.962Z,18.47
2019-03-24T12:29:25.929Z,18.60
2019-03-24T12:30:25.920Z,18.46
2019-03-24T12:31:25.906Z,18.39
2019-03-24T12:32:25.883Z,18.84
2019-03-24T12:33:25.868Z,19.01
2019-03-24T12:34:25.892Z,18.57
2019-03-24T12:35:25.849Z,19.05
2019-03-24T12:36:25.841Z,19.57
2019-03-24T12:37:25.824Z,19.46
2019-03-24T12:38:25.818Z,19.50
2019-03-24T12:39:25.801Z,19.75
2019-03-24T12:40:25.906Z,20.02
2019-03-24T12:41:25.780Z,20.23
2019-03-24T12:42:25.780Z,20.57
2019-03-24T12:43:25.778Z,20.73
2019-03-24T12:44:25.747Z,20.72
2019-03-24T12:45:25.778Z,20.78
2019-03-24T12:46:25.733Z,21.01
2019-03-24T12:47:25.719Z,21.16
2019-03-24T12:48:25.785Z,21.08
2019-03-24T12:49:25.701Z,20.57
2019-03-24T12:50:31.488Z,20.35
2019-03-24T12:51:26.682Z,20.42
2019-03-24T12:52:25.669Z,20.41
2019-03-24T12:53:25.652Z,20.25
2019-03-24T12:54:25.716Z,20.58
2019-03-24T12:55:25.635Z,20.61
2019-03-24T12:56:25.634Z,20.75
2019-03-24T12:57:25.618Z,20.71
2019-03-24T12:58:25.606Z,20.64
2019-03-24T12:59:25.597Z,20.66
2019-03-24T13:00:25.579Z,20.57
2019-03-24T13:01:25.583Z,20.44
2019-03-24T13:02:25.557Z,20.48
2019-03-24T13:03:25.547Z,20.57
2019-03-24T13:04:25.571Z,20.37
2019-03-24T13:05:25.531Z,20.00